• Join FlightAware (Why Join?)
  • Login
  • US Flag 
08:52PM EST


 

Airport Tracker/Info


-or-


 

Live Flight TrackerFlight Track Log ✈ N5348U ✈ 26-Jun-2013 ✈ KMTP - KMMU

Flight Track Log - Related Links

Times and Time Zones

All times are in EDT time to prevent confusion due to time zone crossing. See the N5348U flight status page for this flight to view local times or setup timezone preferences in your user account.

Time Position Orientation Groundspeed Altitude Reporting Facility
EDT Latitude Longitude Course Direction KTS MPH feet Rate Location/Type
02:32PM 41.0781 -71.9692 352° North 136 157 1,600  Level Boston Center
02:32PM 41.0928 -71.9719 352° North 95 109 1,900 540 Climbing Boston Center
02:33PM 41.1178 -71.9800 346° North 91 105 2,500 540 Climbing Boston Center
02:34PM 41.1428 -71.9936 338° Northwest 101 116 3,100 540 Climbing Boston Center
02:35PM 41.1719 -72.0017 348° North 109 125 3,600 420 Climbing Boston Center
02:36PM 41.2033 -72.0125 345° North 118 136 4,000 180 Climbing Boston Center
02:37PM 41.2408 -72.0178 354° North 142 163 4,000  Level Boston Center
02:38PM 41.2806 -72.0397 337° Northwest 136 157 4,000  Level Boston Center
02:39PM 41.3161 -72.0503 347° North 147 169 4,000 -60 Level Boston Center
02:40PM 41.3328 -72.1083 291° West 140 161 3,900 -60 Descending Boston Center
02:41PM 41.3372 -72.1608 276° West 140 161 3,900  Level Boston Center
02:42PM 41.3664 -72.1911 322° Northwest 130 150 3,900  Level Boston Center
02:43PM 41.3936 -72.2269 315° West 130 150 3,900  Level Boston Center
02:44PM 41.4208 -72.2686 311° West 147 169 3,900  Level Boston Center
02:46PM 41.4625 -72.3236 315° West 137 158 3,900  Level Boston Center
02:47PM 41.4897 -72.3625 313° West 138 159 3,900  Level Boston Center
02:48PM 41.5125 -72.3931 315° West 130 150 4,000  Climbing Boston Center
02:49PM 41.5375 -72.4289 313° West 130 150 4,000  Level Boston Center
02:50PM 41.5647 -72.4650 315° West 138 159 4,000  Level Boston Center
02:51PM 41.5958 -72.5011 319° Northwest 145 167 4,000  Level Boston Center
02:52PM 41.5917 -72.5539 264° West 144 166 4,000  Level Boston Center
02:54PM 41.5500 -72.6500 240° Southwest 136 157 4,000  Level New York TRACON
02:55PM 41.5500 -72.7000 270° West 139 160 4,000 -60 Level New York TRACON
02:56PM 41.5333 -72.7500 246° West 137 158 3,900 -60 Descending New York TRACON
02:57PM 41.5167 -72.7833 236° Southwest 139 160 3,900  Level New York TRACON
02:58PM 41.5000 -72.8333 246° West 141 162 3,900  Level New York TRACON
02:59PM 41.4833 -72.8833 246° West 142 163 3,900  Level New York TRACON
03:00PM 41.4667 -72.9333 246° West 144 166 3,900  Level New York TRACON
03:01PM 41.4500 -72.9833 246° West 141 162 3,900  Level New York TRACON
03:02PM 41.4333 -73.0333 246° West 137 158 3,900 180 Level New York TRACON
03:03PM 41.4333 -73.0667 270° West 133 153 4,300 540 Climbing New York TRACON
03:04PM 41.4167 -73.1167 246° West 105 121 5,000 540 Climbing New York TRACON
03:05PM 41.4167 -73.1500 270° West 105 121 5,500 420 Climbing New York TRACON
03:06PM 41.4000 -73.1833 236° Southwest 108 124 5,900 240 Climbing New York TRACON
03:07PM 41.3833 -73.2333 246° West 128 147 6,000  Climbing New York TRACON
03:08PM 41.3667 -73.2667 236° Southwest 132 152 6,000  Level New York TRACON
03:09PM 41.3500 -73.3167 246° West 131 151 6,000  Level New York TRACON
03:10PM 41.3500 -73.3667 270° West 132 152 6,000  Level New York TRACON
03:11PM 41.3333 -73.4000 236° Southwest 133 153 6,000 -120 Level New York TRACON
03:12PM 41.3167 -73.4500 246° West 138 159 5,800 -420 Descending New York TRACON
03:13PM 41.3000 -73.5000 246° West 155 178 5,200 -600 Descending New York TRACON
03:14PM 41.2833 -73.5667 252° West 159 183 4,600 -600 Descending New York TRACON
03:15PM 41.2667 -73.6167 246° West 158 182 4,000 -360 Descending New York TRACON
03:16PM 41.2667 -73.6667 270° West 145 167 3,900 -60 Descending New York TRACON
03:17PM 41.2667 -73.7167 270° West 138 159 3,900  Level New York TRACON
03:18PM 41.2500 -73.7667 246° West 140 161 3,900  Level New York TRACON
03:19PM 41.2500 -73.8167 270° West 139 160 3,900  Level New York TRACON
03:20PM 41.2500 -73.8667 270° West 139 160 3,900  Level New York TRACON
03:21PM 41.2500 -73.9167 270° West 140 161 3,900  Level New York TRACON
03:22PM 41.2333 -73.9833 252° West 141 162 3,900 -240 Level New York TRACON
03:23PM 41.2333 -74.0333 270° West 151 174 3,500 -480 Descending New York TRACON
03:24PM 41.2333 -74.1000 270° West 169 194 3,000 -360 Descending New York TRACON
03:25PM 41.2000 -74.1333 217° Southwest 153 176 2,900 -60 Descending New York TRACON
03:26PM 41.1833 -74.1833 246° West 138 159 2,900  Level New York TRACON
03:27PM 41.1500 -74.2000 201° Southwest 148 170 2,900  Level New York TRACON
03:28PM 41.1167 -74.2000 180° South 149 171 2,900  Level New York TRACON
03:29PM 41.0667 -74.2167 194° South 146 168 2,900 -180 Level New York TRACON
03:30PM 41.0333 -74.2333 201° Southwest 153 176 2,600 -360 Descending New York TRACON
03:31PM 40.9833 -74.2500 194° South 157 181 2,200 -240 Descending New York TRACON
03:32PM 40.9500 -74.2667 201° Southwest 141 162 2,200 -120 Level New York TRACON
03:33PM 40.9333 -74.3000 237° Southwest 131 151 2,000 -120 Descending New York TRACON
03:34PM 40.9000 -74.3167 201° Southwest 122 140 2,000 -180 Level New York TRACON
03:35PM 40.8667 -74.3500 217° Southwest 101 116 1,700 -420 Descending New York TRACON
03:36PM 40.8500 -74.3667 217° Southwest 102 117 1,200 -540 Descending New York TRACON
03:38PM 40.7975 -74.3905 207° Southwest  Level FlightAware Approximate
03:45PM 40.7833 -74.4000 207° Southwest  Level FlightAware Approximate
03:46PM 40.7993 -74.4149 207° Southwest  Level Estimated
03:47PM 40.7993 -74.4149 207° Southwest  Level Estimated
03:48PM 40.7993 -74.4149 207° Southwest  Level Estimated